createdAt,value
2023-05-14T00:00:55.299Z,199.00
2023-05-14T00:01:56.342Z,200.79
2023-05-14T00:02:56.652Z,200.55
2023-05-14T00:03:56.532Z,198.08
2023-05-14T00:04:56.423Z,199.03
2023-05-14T00:05:56.426Z,197.74
2023-05-14T00:06:55.480Z,192.60
2023-05-14T00:07:56.526Z,187.50
2023-05-14T00:08:55.570Z,188.38
2023-05-14T00:09:55.584Z,190.73
2023-05-14T00:10:56.600Z,190.60
2023-05-14T00:11:55.623Z,186.92
2023-05-14T00:12:55.617Z,189.99
2023-05-14T00:13:55.644Z,193.85
2023-05-14T00:14:55.739Z,198.47
2023-05-14T00:15:56.736Z,203.48
2023-05-14T00:16:56.732Z,208.77
2023-05-14T00:17:56.822Z,208.26
2023-05-14T00:18:56.804Z,212.04
2023-05-14T00:19:56.838Z,214.02
2023-05-14T00:20:56.901Z,215.43
2023-05-14T00:21:55.887Z,214.59
2023-05-14T00:22:55.936Z,213.96
2023-05-14T00:23:56.993Z,212.70
2023-05-14T00:24:56.006Z,213.23
2023-05-14T00:25:57.042Z,217.04
2023-05-14T00:26:57.110Z,220.05
2023-05-14T00:27:57.126Z,223.54
2023-05-14T00:28:57.142Z,225.85
2023-05-14T00:29:57.208Z,229.25
2023-05-14T00:30:57.321Z,232.94
2023-05-14T00:31:56.383Z,233.88
2023-05-14T00:32:56.352Z,234.01
2023-05-14T00:33:57.362Z,235.31
2023-05-14T00:34:57.418Z,235.02
2023-05-14T00:35:56.450Z,235.87
2023-05-14T00:36:57.473Z,235.10
2023-05-14T00:37:57.591Z,235.81
2023-05-14T00:38:57.552Z,235.28
2023-05-14T00:39:57.595Z,233.42
2023-05-14T00:40:57.638Z,232.82
2023-05-14T00:41:57.705Z,232.87
2023-05-14T00:42:56.722Z,234.43
2023-05-14T00:43:57.761Z,231.81
2023-05-14T00:44:56.742Z,232.92
2023-05-14T00:45:57.768Z,232.12
2023-05-14T00:46:56.849Z,230.35
2023-05-14T00:47:57.878Z,229.91
2023-05-14T00:48:57.882Z,229.94
2023-05-14T00:49:57.925Z,230.61
2023-05-14T00:50:56.941Z,232.46
2023-05-14T00:51:57.968Z,239.35
2023-05-14T00:52:57.990Z,243.36
2023-05-14T00:53:58.032Z,245.54
2023-05-14T00:54:57.118Z,244.45
2023-05-14T00:55:57.079Z,244.34
2023-05-14T00:56:58.111Z,243.89
2023-05-14T00:57:58.125Z,242.40
2023-05-14T00:58:57.166Z,242.66
2023-05-14T00:59:57.201Z,242.02
2023-05-14T01:00:57.260Z,241.34
2023-05-14T01:01:58.228Z,238.61
2023-05-14T01:02:57.305Z,235.35
2023-05-14T01:03:57.516Z,231.18
2023-05-14T01:04:58.298Z,231.17
2023-05-14T01:05:57.290Z,232.77
2023-05-14T01:06:58.381Z,238.53
2023-05-14T01:07:57.358Z,241.86
2023-05-14T01:08:57.379Z,244.11
2023-05-14T01:09:57.432Z,246.07
2023-05-14T01:10:57.455Z,250.00
2023-05-14T01:11:57.493Z,249.53
2023-05-14T01:12:58.567Z,249.81
2023-05-14T01:13:58.585Z,249.88
2023-05-14T01:14:57.674Z,247.42
2023-05-14T01:15:57.758Z,247.13
2023-05-14T01:16:58.822Z,245.15
2023-05-14T01:17:57.868Z,243.75
2023-05-14T01:18:57.945Z,245.71
2023-05-14T01:19:58.914Z,242.50
2023-05-14T01:20:57.975Z,239.77
2023-05-14T01:21:59.049Z,236.11
2023-05-14T01:22:59.075Z,235.36
2023-05-14T01:23:59.120Z,233.20
2023-05-14T01:24:59.206Z,228.13
2023-05-14T01:25:58.221Z,221.42
2023-05-14T01:26:59.259Z,220.76
2023-05-14T01:27:59.327Z,217.68
2023-05-14T01:28:58.364Z,215.66
2023-05-14T01:29:58.442Z,217.74
2023-05-14T01:30:58.493Z,222.18
2023-05-14T01:31:59.558Z,228.07
2023-05-14T01:32:58.627Z,232.03
2023-05-14T01:33:59.597Z,230.91
2023-05-14T01:34:59.659Z,228.98
2023-05-14T01:35:58.837Z,227.89
2023-05-14T01:36:58.764Z,227.79
2023-05-14T01:37:59.816Z,225.69
2023-05-14T01:38:59.809Z,219.10
2023-05-14T01:39:59.818Z,211.93
2023-05-14T01:40:58.824Z,205.16
2023-05-14T01:41:59.859Z,199.83
2023-05-14T01:42:59.882Z,196.12
2023-05-14T01:43:58.825Z,194.20
2023-05-14T01:44:59.857Z,192.16
2023-05-14T01:45:59.911Z,189.55
2023-05-14T01:46:58.872Z,186.73
2023-05-14T01:47:59.930Z,188.95
2023-05-14T01:48:58.878Z,187.72
2023-05-14T01:49:59.932Z,187.26
2023-05-14T01:50:59.931Z,187.87
2023-05-14T01:51:58.918Z,188.60
2023-05-14T01:53:00.000Z,186.40
2023-05-14T01:53:59.926Z,185.54
2023-05-14T01:54:59.928Z,186.52
2023-05-14T01:55:59.936Z,187.06
2023-05-14T01:56:59.946Z,187.58
2023-05-14T01:57:59.983Z,187.30
2023-05-14T01:58:58.941Z,185.77
2023-05-14T01:59:58.957Z,186.69
2023-05-14T02:00:59.028Z,188.60
2023-05-14T02:02:00.052Z,189.01
2023-05-14T02:03:00.131Z,188.69
2023-05-14T02:04:00.181Z,189.41
2023-05-14T02:04:59.042Z,189.40
2023-05-14T02:06:00.111Z,189.53
2023-05-14T02:07:00.126Z,188.88
2023-05-14T02:07:59.125Z,189.86
2023-05-14T02:09:00.157Z,190.65
2023-05-14T02:10:00.188Z,188.49
2023-05-14T02:11:00.162Z,188.87
2023-05-14T02:12:00.226Z,187.98
2023-05-14T02:12:59.217Z,189.14
2023-05-14T02:13:59.228Z,188.40
2023-05-14T02:15:00.218Z,189.72
2023-05-14T02:16:00.319Z,189.10
2023-05-14T02:17:00.237Z,188.36
2023-05-14T02:17:59.228Z,187.49
2023-05-14T02:18:59.285Z,186.42
2023-05-14T02:19:59.230Z,185.36
2023-05-14T02:21:00.254Z,185.53
2023-05-14T02:22:00.270Z,183.99
2023-05-14T02:23:00.323Z,182.16
2023-05-14T02:24:00.296Z,183.34
2023-05-14T02:24:59.312Z,181.15
2023-05-14T02:26:00.314Z,180.07
2023-05-14T02:27:00.343Z,182.35
2023-05-14T02:28:00.370Z,182.18
2023-05-14T02:29:00.351Z,181.55
2023-05-14T02:30:00.364Z,181.95
2023-05-14T02:30:59.407Z,181.71
2023-05-14T02:31:59.373Z,180.51
2023-05-14T02:32:59.455Z,178.93
2023-05-14T02:34:00.440Z,176.61
2023-05-14T02:35:00.416Z,175.57
2023-05-14T02:35:59.426Z,175.72
2023-05-14T02:36:59.439Z,175.54
2023-05-14T02:37:59.438Z,174.21
2023-05-14T02:38:59.441Z,174.59
2023-05-14T02:39:59.471Z,173.47
2023-05-14T02:41:00.462Z,173.74
2023-05-14T02:41:59.447Z,175.12
2023-05-14T02:43:00.475Z,175.92
2023-05-14T02:43:59.459Z,173.50
2023-05-14T02:44:59.469Z,172.88
2023-05-14T02:46:00.538Z,174.18
2023-05-14T02:46:59.572Z,174.12
2023-05-14T02:47:59.470Z,174.18
2023-05-14T02:49:00.505Z,174.11
2023-05-14T02:50:00.557Z,175.89
2023-05-14T02:50:59.566Z,174.15
2023-05-14T02:52:00.575Z,174.60
2023-05-14T02:53:00.631Z,175.75
2023-05-14T02:54:00.639Z,174.41
2023-05-14T02:55:00.660Z,175.10
2023-05-14T02:56:00.687Z,172.24
2023-05-14T02:56:59.665Z,173.48
2023-05-14T02:58:00.739Z,177.14
2023-05-14T02:59:00.706Z,178.04
2023-05-14T03:00:00.703Z,179.18
2023-05-14T03:00:59.735Z,178.10
2023-05-14T03:02:00.727Z,173.08
2023-05-14T03:03:00.753Z,174.69
2023-05-14T03:03:59.756Z,174.29
2023-05-14T03:04:59.740Z,170.58
2023-05-14T03:05:59.753Z,170.40
2023-05-14T03:07:00.772Z,171.38
2023-05-14T03:07:59.749Z,172.43
2023-05-14T03:08:59.761Z,171.47
2023-05-14T03:09:59.815Z,175.00
2023-05-14T03:10:59.791Z,179.30
2023-05-14T03:12:00.796Z,184.12
2023-05-14T03:12:59.798Z,183.51
2023-05-14T03:13:59.811Z,184.45
2023-05-14T03:14:59.855Z,184.10
2023-05-14T03:15:59.889Z,187.39
2023-05-14T03:17:00.944Z,190.85
2023-05-14T03:17:59.954Z,197.51
2023-05-14T03:19:00.917Z,205.95
2023-05-14T03:19:59.939Z,214.06
2023-05-14T03:21:00.920Z,214.22
2023-05-14T03:22:00.958Z,212.18
2023-05-14T03:22:59.949Z,207.82
2023-05-14T03:24:00.974Z,205.78
2023-05-14T03:24:59.956Z,209.92
2023-05-14T03:26:00.970Z,212.72
2023-05-14T03:26:59.962Z,215.30
2023-05-14T03:28:00.972Z,211.96
2023-05-14T03:29:00.005Z,204.17
2023-05-14T03:30:00.982Z,204.80
2023-05-14T03:31:00.016Z,204.91
2023-05-14T03:31:59.997Z,203.09
2023-05-14T03:33:00.121Z,198.20
2023-05-14T03:34:00.012Z,196.87
2023-05-14T03:35:01.074Z,195.04
2023-05-14T03:36:00.041Z,195.24
2023-05-14T03:37:01.050Z,192.39
2023-05-14T03:38:00.073Z,191.65
2023-05-14T03:39:00.065Z,190.10
2023-05-14T03:40:00.070Z,184.68
2023-05-14T03:41:01.149Z,184.90
2023-05-14T03:42:01.092Z,186.56
2023-05-14T03:43:01.109Z,184.71
2023-05-14T03:44:01.100Z,183.98
2023-05-14T03:45:01.125Z,183.63
2023-05-14T03:46:01.133Z,185.56
2023-05-14T03:47:01.206Z,185.77
2023-05-14T03:48:00.279Z,187.45
2023-05-14T03:49:00.224Z,188.23
2023-05-14T03:50:00.236Z,188.42
2023-05-14T03:51:01.261Z,187.41
2023-05-14T03:52:00.249Z,188.82
2023-05-14T03:53:01.316Z,190.81
2023-05-14T03:54:01.287Z,190.65
2023-05-14T03:55:01.302Z,191.68
2023-05-14T03:56:00.281Z,192.96
2023-05-14T03:57:01.311Z,194.31
2023-05-14T03:58:01.331Z,195.47
2023-05-14T03:59:00.366Z,197.17
2023-05-14T04:00:01.396Z,202.09
2023-05-14T04:01:00.412Z,208.00
2023-05-14T04:02:01.413Z,213.12
2023-05-14T04:03:01.464Z,217.07
2023-05-14T04:04:00.645Z,220.23
2023-05-14T04:05:01.501Z,221.82
2023-05-14T04:06:01.474Z,218.21
2023-05-14T04:07:01.478Z,218.58
2023-05-14T04:08:00.453Z,218.06
2023-05-14T04:09:01.500Z,216.68
2023-05-14T04:10:03.359Z,216.10
2023-05-14T04:11:00.527Z,213.91
2023-05-14T04:12:00.562Z,210.32
2023-05-14T04:13:00.467Z,206.94
2023-05-14T04:14:00.485Z,204.53
2023-05-14T04:15:00.445Z,204.89
2023-05-14T04:16:01.512Z,206.03
2023-05-14T04:17:01.483Z,206.90
2023-05-14T04:18:00.460Z,200.13
2023-05-14T04:19:01.478Z,199.28
2023-05-14T04:20:01.428Z,196.78
2023-05-14T04:21:01.414Z,195.79
2023-05-14T04:22:01.413Z,196.97
2023-05-14T04:23:00.432Z,195.64
2023-05-14T04:24:01.399Z,193.75
2023-05-14T04:25:01.394Z,194.17
2023-05-14T04:26:01.388Z,195.76
2023-05-14T04:27:01.408Z,194.09
2023-05-14T04:28:00.394Z,194.53
2023-05-14T04:29:01.386Z,194.98
2023-05-14T04:30:01.336Z,193.31
2023-05-14T04:31:00.347Z,195.63
2023-05-14T04:32:01.461Z,197.68
2023-05-14T04:33:01.418Z,196.70
2023-05-14T04:34:01.315Z,198.47
2023-05-14T04:35:01.357Z,198.51
2023-05-14T04:36:00.310Z,197.84
2023-05-14T04:37:00.288Z,196.94
2023-05-14T04:38:00.280Z,196.98
2023-05-14T04:39:01.301Z,200.97
2023-05-14T04:40:01.269Z,199.23
2023-05-14T04:41:01.302Z,200.87
2023-05-14T04:42:01.269Z,200.40
2023-05-14T04:43:01.274Z,203.35
2023-05-14T04:44:01.243Z,206.36
2023-05-14T04:45:01.242Z,207.82
2023-05-14T04:46:01.247Z,211.22
2023-05-14T04:47:01.267Z,214.79
2023-05-14T04:48:00.383Z,222.10
2023-05-14T04:49:01.189Z,236.54
2023-05-14T04:50:00.376Z,245.12
2023-05-14T04:51:01.184Z,245.72
2023-05-14T04:52:01.194Z,246.28
2023-05-14T04:53:01.211Z,249.03
2023-05-14T04:54:00.248Z,250.00
2023-05-14T04:55:01.188Z,250.37
2023-05-14T04:56:01.161Z,254.82
2023-05-14T04:57:01.154Z,254.76
2023-05-14T04:58:00.148Z,249.79
2023-05-14T04:59:01.177Z,249.98
2023-05-14T05:00:01.186Z,250.00
2023-05-14T05:01:01.180Z,249.36
2023-05-14T05:02:01.249Z,249.54
2023-05-14T05:03:01.346Z,248.98
2023-05-14T05:04:01.381Z,250.00
2023-05-14T05:05:01.360Z,249.79
2023-05-14T05:06:01.361Z,249.70
2023-05-14T05:07:00.487Z,250.07
2023-05-14T05:08:01.404Z,250.04
2023-05-14T05:09:01.967Z,249.77
2023-05-14T05:10:01.468Z,249.84
2023-05-14T05:11:01.495Z,248.08
2023-05-14T05:12:01.507Z,246.68
2023-05-14T05:13:01.491Z,246.80
2023-05-14T05:14:00.610Z,245.65
2023-05-14T05:15:00.597Z,245.22
2023-05-14T05:16:00.731Z,243.56
2023-05-14T05:17:00.667Z,237.82
2023-05-14T05:18:01.750Z,233.05
2023-05-14T05:19:00.837Z,233.58
2023-05-14T05:20:01.741Z,230.64
2023-05-14T05:21:00.765Z,230.88
2023-05-14T05:22:00.766Z,226.85
2023-05-14T05:23:01.893Z,224.91
2023-05-14T05:24:00.905Z,225.24
2023-05-14T05:25:01.920Z,228.91
2023-05-14T05:26:01.985Z,236.93
2023-05-14T05:27:02.057Z,238.93
2023-05-14T05:28:01.042Z,234.41
2023-05-14T05:29:01.100Z,234.23
2023-05-14T05:30:02.227Z,229.57
2023-05-14T05:31:01.207Z,221.17
2023-05-14T05:32:01.248Z,217.16
2023-05-14T05:33:02.356Z,212.26
2023-05-14T05:34:01.363Z,210.55
2023-05-14T05:35:01.399Z,206.00
2023-05-14T05:36:02.498Z,200.61
2023-05-14T05:37:02.495Z,198.49
2023-05-14T05:38:01.940Z,199.55
2023-05-14T05:39:02.579Z,196.74
2023-05-14T05:40:01.639Z,195.84
2023-05-14T05:41:01.693Z,191.75
2023-05-14T05:42:01.758Z,189.43
2023-05-14T05:43:02.772Z,189.50
2023-05-14T05:44:01.840Z,182.27
2023-05-14T05:45:02.903Z,180.87
2023-05-14T05:46:02.938Z,183.37
2023-05-14T05:47:01.953Z,185.55
2023-05-14T05:48:03.043Z,187.87
2023-05-14T05:49:02.957Z,183.70
2023-05-14T05:50:02.005Z,185.49
2023-05-14T05:51:03.046Z,189.70
2023-05-14T05:52:03.064Z,192.21
2023-05-14T05:53:03.132Z,195.43
2023-05-14T05:54:03.116Z,199.21
2023-05-14T05:55:03.118Z,202.51
2023-05-14T05:56:03.135Z,205.77
2023-05-14T05:57:02.145Z,211.96
2023-05-14T05:58:02.204Z,216.64
2023-05-14T05:59:03.201Z,214.39
2023-05-14T06:00:03.200Z,214.91
2023-05-14T06:01:03.197Z,214.79
2023-05-14T06:02:03.287Z,217.12
2023-05-14T06:03:03.239Z,217.11
2023-05-14T06:04:02.254Z,218.41
2023-05-14T06:05:03.264Z,217.92
2023-05-14T06:06:02.270Z,221.49
2023-05-14T06:07:03.261Z,220.53
2023-05-14T06:08:02.292Z,221.47
2023-05-14T06:09:03.330Z,221.44
2023-05-14T06:10:02.337Z,219.17
2023-05-14T06:11:02.320Z,218.84
2023-05-14T06:12:03.372Z,221.03
2023-05-14T06:13:03.360Z,222.64
2023-05-14T06:14:03.377Z,219.56
2023-05-14T06:15:03.445Z,216.52
2023-05-14T06:16:02.594Z,217.48
2023-05-14T06:17:03.539Z,217.83
2023-05-14T06:18:03.629Z,213.60
2023-05-14T06:19:03.614Z,207.26
2023-05-14T06:20:02.603Z,207.63
2023-05-14T06:21:03.679Z,207.76
2023-05-14T06:22:03.717Z,210.92
2023-05-14T06:23:03.695Z,211.13
2023-05-14T06:24:03.725Z,211.80
2023-05-14T06:25:03.779Z,206.70
2023-05-14T06:26:03.776Z,204.13
2023-05-14T06:27:03.818Z,200.90
2023-05-14T06:28:03.905Z,193.44
2023-05-14T06:29:03.915Z,193.54
2023-05-14T06:30:02.946Z,189.30
2023-05-14T06:31:02.979Z,189.53
2023-05-14T06:32:03.074Z,193.38
2023-05-14T06:33:04.167Z,191.81
2023-05-14T06:34:04.118Z,190.60
2023-05-14T06:35:03.104Z,190.21
2023-05-14T06:36:03.114Z,194.45
2023-05-14T06:37:03.138Z,194.82
2023-05-14T06:38:04.187Z,193.12
2023-05-14T06:39:04.250Z,194.40
2023-05-14T06:40:03.241Z,195.85
2023-05-14T06:41:03.228Z,194.88
2023-05-14T06:42:03.243Z,193.72
2023-05-14T06:43:04.272Z,193.52
2023-05-14T06:44:04.283Z,194.93
2023-05-14T06:45:04.324Z,195.22
2023-05-14T06:46:04.341Z,190.45
2023-05-14T06:47:04.371Z,189.15
2023-05-14T06:48:03.492Z,188.71
2023-05-14T06:49:03.465Z,187.39
2023-05-14T06:50:04.511Z,182.32
2023-05-14T06:51:03.458Z,183.05
2023-05-14T06:52:03.534Z,183.12
2023-05-14T06:53:04.479Z,182.20
2023-05-14T06:54:04.528Z,178.99
2023-05-14T06:55:03.518Z,172.96
2023-05-14T06:56:03.507Z,177.18
2023-05-14T06:57:04.570Z,183.36
2023-05-14T06:58:04.627Z,190.53
2023-05-14T06:59:03.623Z,192.09
2023-05-14T07:00:04.020Z,190.34
2023-05-14T07:01:04.716Z,178.43
2023-05-14T07:02:04.738Z,175.13
2023-05-14T07:03:03.783Z,179.01
2023-05-14T07:04:04.826Z,173.11
2023-05-14T07:05:03.730Z,171.52
2023-05-14T07:06:04.749Z,166.55
2023-05-14T07:07:03.756Z,160.92
2023-05-14T07:08:04.806Z,153.27
2023-05-14T07:09:03.857Z,150.79
2023-05-14T07:10:03.958Z,146.54
2023-05-14T07:11:04.979Z,147.12
2023-05-14T07:12:04.033Z,150.25
2023-05-14T07:13:05.155Z,152.92
2023-05-14T07:14:05.130Z,154.85
2023-05-14T07:15:05.181Z,156.66
2023-05-14T07:16:05.263Z,159.15
2023-05-14T07:17:05.267Z,156.83
2023-05-14T07:18:05.326Z,150.93
2023-05-14T07:19:05.380Z,150.00
2023-05-14T07:20:05.383Z,152.54
2023-05-14T07:21:05.474Z,155.05
2023-05-14T07:22:04.474Z,148.22
2023-05-14T07:23:04.493Z,141.67
2023-05-14T07:24:05.524Z,143.39
2023-05-14T07:25:05.539Z,134.44
2023-05-14T07:26:05.613Z,141.43
2023-05-14T07:27:05.662Z,149.41
2023-05-14T07:28:04.692Z,155.35
2023-05-14T07:29:05.740Z,157.64
2023-05-14T07:30:05.789Z,156.65
2023-05-14T07:31:04.876Z,153.31
2023-05-14T07:32:04.878Z,155.23
2023-05-14T07:33:04.998Z,157.64
2023-05-14T07:34:04.937Z,159.36
2023-05-14T07:35:05.990Z,156.40
2023-05-14T07:36:05.984Z,147.60
2023-05-14T07:37:06.051Z,141.35
2023-05-14T07:38:06.131Z,142.20
2023-05-14T07:39:05.114Z,143.93
2023-05-14T07:40:05.223Z,140.64
2023-05-14T07:41:06.169Z,139.87
2023-05-14T07:42:06.211Z,147.32
2023-05-14T07:43:05.226Z,158.22
2023-05-14T07:44:06.254Z,154.37
2023-05-14T07:45:05.273Z,148.89
2023-05-14T07:46:06.290Z,151.94
2023-05-14T07:47:05.374Z,151.98
2023-05-14T07:48:06.536Z,148.65
2023-05-14T07:49:06.479Z,145.78
2023-05-14T07:50:06.540Z,141.42
2023-05-14T07:51:06.518Z,134.46
2023-05-14T07:52:06.515Z,125.09
2023-05-14T07:53:05.585Z,127.72
2023-05-14T07:54:06.604Z,127.20
2023-05-14T07:55:05.605Z,121.83
2023-05-14T07:56:06.654Z,124.65
2023-05-14T07:57:06.653Z,120.25
2023-05-14T07:58:05.725Z,120.27
2023-05-14T07:59:06.778Z,124.52
2023-05-14T08:00:06.824Z,121.39
2023-05-14T08:01:05.832Z,119.51
2023-05-14T08:02:06.906Z,122.83
2023-05-14T08:03:06.013Z,119.08
2023-05-14T08:04:05.933Z,116.50
2023-05-14T08:05:05.876Z,111.80
2023-05-14T08:06:06.844Z,106.93
2023-05-14T08:07:05.879Z,101.93
2023-05-14T08:08:05.892Z,105.68
2023-05-14T08:09:06.940Z,101.84
2023-05-14T08:10:06.940Z,100.05
2023-05-14T08:11:07.048Z,98.35
2023-05-14T08:12:06.971Z,90.13
2023-05-14T08:13:06.011Z,95.04
2023-05-14T08:14:06.079Z,93.98
2023-05-14T08:15:07.098Z,94.83
2023-05-14T08:16:07.149Z,85.70
2023-05-14T08:17:06.258Z,80.10
2023-05-14T08:18:07.190Z,79.12
2023-05-14T08:19:07.199Z,83.76
2023-05-14T08:20:06.185Z,80.89
2023-05-14T08:21:06.209Z,84.01
2023-05-14T08:22:07.216Z,78.27
2023-05-14T08:23:07.268Z,80.95
2023-05-14T08:24:06.237Z,97.79
2023-05-14T08:25:06.329Z,106.48
2023-05-14T08:26:07.353Z,98.28
2023-05-14T08:27:07.401Z,97.80
2023-05-14T08:28:06.401Z,91.84
2023-05-14T08:29:09.305Z,97.46
2023-05-14T08:30:06.362Z,94.66
2023-05-14T08:31:06.422Z,97.94
2023-05-14T08:32:19.277Z,97.52
2023-05-14T08:33:07.435Z,88.46
2023-05-14T08:34:06.319Z,86.03
2023-05-14T08:35:06.335Z,91.13
2023-05-14T08:36:07.333Z,86.09
2023-05-14T08:37:07.304Z,80.73
2023-05-14T08:38:06.303Z,73.71
2023-05-14T08:39:06.339Z,72.11
2023-05-14T08:40:06.273Z,70.43
2023-05-14T08:41:07.574Z,60.75
2023-05-14T08:42:06.277Z,64.46
2023-05-14T08:43:07.282Z,67.42
2023-05-14T08:44:06.261Z,62.29
2023-05-14T08:45:06.314Z,61.63
2023-05-14T08:46:06.333Z,59.17
2023-05-14T08:47:07.389Z,61.45
2023-05-14T08:48:07.504Z,59.65
2023-05-14T08:49:06.458Z,55.52
2023-05-14T08:50:06.477Z,68.05
2023-05-14T08:51:07.524Z,66.12
2023-05-14T08:52:06.464Z,71.68
2023-05-14T08:53:07.511Z,74.54
2023-05-14T08:54:06.527Z,78.26
2023-05-14T08:55:07.493Z,76.95
2023-05-14T08:56:06.488Z,70.85
2023-05-14T08:57:07.539Z,66.24
2023-05-14T08:58:06.544Z,67.71
2023-05-14T08:59:07.560Z,82.20
2023-05-14T09:00:06.544Z,85.93
2023-05-14T09:01:06.586Z,71.87
2023-05-14T09:02:07.856Z,70.79
2023-05-14T09:03:07.967Z,73.90
2023-05-14T09:04:06.786Z,66.06
2023-05-14T09:05:07.737Z,73.00
2023-05-14T09:06:06.796Z,65.48
2023-05-14T09:07:07.872Z,53.86
2023-05-14T09:08:07.894Z,55.13
2023-05-14T09:09:07.997Z,41.11
2023-05-14T09:10:07.979Z,35.04
2023-05-14T09:11:07.041Z,27.02
2023-05-14T09:12:08.088Z,32.22
2023-05-14T09:13:07.163Z,29.49
2023-05-14T09:14:07.221Z,34.77
2023-05-14T09:15:07.258Z,40.39
2023-05-14T09:16:08.309Z,45.96
2023-05-14T09:17:08.257Z,46.56
2023-05-14T09:18:08.339Z,36.02
2023-05-14T09:19:08.434Z,32.24
2023-05-14T09:20:08.395Z,9.83
2023-05-14T09:21:07.395Z,17.64
2023-05-14T09:22:08.568Z,31.00
2023-05-14T09:23:07.489Z,35.68
2023-05-14T09:24:08.522Z,27.02
2023-05-14T09:25:08.621Z,29.72
2023-05-14T09:26:07.652Z,37.54
2023-05-14T09:27:07.692Z,23.43
2023-05-14T09:28:07.727Z,27.11
2023-05-14T09:29:08.782Z,19.76
2023-05-14T09:30:08.818Z,24.95
2023-05-14T09:31:08.910Z,23.67
2023-05-14T09:32:07.945Z,8.74
2023-05-14T09:33:08.029Z,4.22
2023-05-14T09:34:07.937Z,9.17
2023-05-14T09:35:08.955Z,8.00
2023-05-14T09:36:07.954Z,18.28
2023-05-14T09:37:09.015Z,15.14
2023-05-14T09:38:08.007Z,19.87
2023-05-14T09:39:08.022Z,27.25
2023-05-14T09:40:08.037Z,24.73
2023-05-14T09:41:08.060Z,22.20
2023-05-14T09:42:08.177Z,24.51
2023-05-14T09:43:09.163Z,27.58
2023-05-14T09:44:09.182Z,27.59
2023-05-14T09:45:09.254Z,34.66
2023-05-14T09:46:09.250Z,32.44
2023-05-14T09:47:09.319Z,24.31
2023-05-14T09:48:09.425Z,23.62
2023-05-14T09:49:08.341Z,27.11
2023-05-14T09:50:08.417Z,29.71
2023-05-14T09:51:08.401Z,34.28
2023-05-14T09:52:09.502Z,29.74
2023-05-14T09:53:09.505Z,29.86
2023-05-14T09:54:09.538Z,25.00
2023-05-14T09:55:09.589Z,31.06
2023-05-14T09:56:08.626Z,23.87
2023-05-14T09:57:08.609Z,25.00
2023-05-14T09:58:08.623Z,26.15
2023-05-14T09:59:09.673Z,26.36
2023-05-14T10:00:09.701Z,29.24
2023-05-14T10:01:08.845Z,24.26
2023-05-14T10:02:08.775Z,25.72
2023-05-14T10:03:08.819Z,28.42
2023-05-14T10:04:09.864Z,30.39
2023-05-14T10:05:08.868Z,29.74
2023-05-14T10:06:09.901Z,33.41
2023-05-14T10:07:08.879Z,29.41
2023-05-14T10:08:09.949Z,24.19
2023-05-14T10:09:08.944Z,25.22
2023-05-14T10:10:09.999Z,24.53
2023-05-14T10:11:10.031Z,22.72
2023-05-14T10:12:10.046Z,26.89
2023-05-14T10:13:10.084Z,30.45
2023-05-14T10:14:10.132Z,32.23
2023-05-14T10:15:09.159Z,34.64
2023-05-14T10:16:10.211Z,30.29
2023-05-14T10:17:10.434Z,33.52
2023-05-14T10:18:09.412Z,35.49
2023-05-14T10:19:10.425Z,37.59
2023-05-14T10:20:09.408Z,36.40
2023-05-14T10:21:10.417Z,37.27
2023-05-14T10:22:09.429Z,32.00
2023-05-14T10:23:09.450Z,36.41
2023-05-14T10:24:09.549Z,37.16
2023-05-14T10:25:10.530Z,47.48
2023-05-14T10:26:09.527Z,50.29
2023-05-14T10:27:10.559Z,48.18
2023-05-14T10:28:09.613Z,44.31
2023-05-14T10:29:09.639Z,43.39
2023-05-14T10:30:09.686Z,42.48
2023-05-14T10:31:10.692Z,40.49
2023-05-14T10:32:10.686Z,34.36
2023-05-14T10:33:10.827Z,32.43
2023-05-14T10:34:10.830Z,37.70
2023-05-14T10:35:10.859Z,42.66
2023-05-14T10:36:09.937Z,45.53
2023-05-14T10:37:09.936Z,46.61
2023-05-14T10:38:09.956Z,44.48
2023-05-14T10:39:10.977Z,49.45
2023-05-14T10:40:11.039Z,53.03
2023-05-14T10:41:11.102Z,51.85
2023-05-14T10:42:10.097Z,58.32
2023-05-14T10:43:10.130Z,59.97
2023-05-14T10:44:10.198Z,55.57
2023-05-14T10:45:11.189Z,52.18
2023-05-14T10:46:10.242Z,55.04
2023-05-14T10:47:10.295Z,60.16
2023-05-14T10:48:11.262Z,72.18
2023-05-14T10:49:10.318Z,74.48
2023-05-14T10:50:11.327Z,70.47
2023-05-14T10:51:10.399Z,82.04
2023-05-14T10:52:10.388Z,85.16
2023-05-14T10:53:11.477Z,78.27
2023-05-14T10:54:10.466Z,71.36
2023-05-14T10:55:10.528Z,75.19
2023-05-14T10:56:11.568Z,82.25
2023-05-14T10:57:11.581Z,86.35
2023-05-14T10:58:11.618Z,88.42
2023-05-14T10:59:10.695Z,91.31
2023-05-14T11:00:10.691Z,77.45
2023-05-14T11:01:11.692Z,67.54
2023-05-14T11:02:11.761Z,59.30
2023-05-14T11:03:11.740Z,57.76
2023-05-14T11:04:11.799Z,53.40
2023-05-14T11:05:10.816Z,41.45
2023-05-14T11:06:11.797Z,55.11
2023-05-14T11:07:11.830Z,53.24
2023-05-14T11:08:11.887Z,55.58
2023-05-14T11:09:11.955Z,62.82
2023-05-14T11:10:11.985Z,62.23
2023-05-14T11:11:12.105Z,57.17
2023-05-14T11:12:11.076Z,55.45
2023-05-14T11:13:12.113Z,65.35
2023-05-14T11:14:12.164Z,69.34
2023-05-14T11:15:12.135Z,63.17
2023-05-14T11:16:22.740Z,56.98
2023-05-14T11:17:12.390Z,57.05
2023-05-14T11:18:12.269Z,57.81
2023-05-14T11:19:11.389Z,59.50
2023-05-14T11:20:11.158Z,60.15
2023-05-14T11:21:12.170Z,60.59
2023-05-14T11:22:12.186Z,59.10
2023-05-14T11:23:11.128Z,64.01
2023-05-14T11:24:12.106Z,56.14
2023-05-14T11:25:12.099Z,55.19
2023-05-14T11:26:12.158Z,54.36
2023-05-14T11:27:12.096Z,52.20
2023-05-14T11:28:12.124Z,55.36
2023-05-14T11:29:12.086Z,52.67
2023-05-14T11:30:12.065Z,46.79
2023-05-14T11:31:12.126Z,47.29
2023-05-14T11:32:11.129Z,42.63
2023-05-14T11:33:12.153Z,39.02
2023-05-14T11:34:11.047Z,42.94
2023-05-14T11:35:12.049Z,41.93
2023-05-14T11:36:12.043Z,51.07
2023-05-14T11:37:11.135Z,55.89
2023-05-14T11:38:11.064Z,59.31
2023-05-14T11:39:12.024Z,60.55
2023-05-14T11:40:12.005Z,65.65
2023-05-14T11:41:11.050Z,62.94
2023-05-14T11:42:11.999Z,65.69
2023-05-14T11:43:10.987Z,63.35
2023-05-14T11:44:12.039Z,58.86
2023-05-14T11:45:11.995Z,57.97
2023-05-14T11:46:12.000Z,68.93
2023-05-14T11:47:11.025Z,70.76
2023-05-14T11:48:12.012Z,66.80
2023-05-14T11:49:10.969Z,65.96
2023-05-14T11:50:11.028Z,53.19
2023-05-14T11:51:12.065Z,49.05
2023-05-14T11:52:11.101Z,52.42
2023-05-14T11:53:12.155Z,42.16
2023-05-14T11:54:12.177Z,41.24
2023-05-14T11:55:12.191Z,48.38
2023-05-14T11:56:11.204Z,45.69
2023-05-14T11:57:12.248Z,43.62
2023-05-14T11:58:12.221Z,52.82
2023-05-14T11:59:11.307Z,53.62
2023-05-14T12:00:12.269Z,44.69
2023-05-14T12:01:12.311Z,47.55
2023-05-14T12:02:12.377Z,45.45
2023-05-14T12:03:11.526Z,52.45
2023-05-14T12:04:11.571Z,56.94
2023-05-14T12:05:11.449Z,58.40
2023-05-14T12:06:12.487Z,66.99
2023-05-14T12:07:12.571Z,75.71
2023-05-14T12:08:11.547Z,78.37
2023-05-14T12:09:12.640Z,77.84
2023-05-14T12:10:11.624Z,78.92
2023-05-14T12:11:12.670Z,75.30
2023-05-14T12:12:11.698Z,69.52
2023-05-14T12:13:11.716Z,71.98
2023-05-14T12:14:11.744Z,73.23
2023-05-14T12:15:12.863Z,66.86
2023-05-14T12:16:11.845Z,61.28
2023-05-14T12:17:12.951Z,61.46
2023-05-14T12:18:23.360Z,66.25
2023-05-14T12:19:12.885Z,66.59
2023-05-14T12:20:12.848Z,67.44
2023-05-14T12:21:12.860Z,67.80
2023-05-14T12:22:12.806Z,65.06
2023-05-14T12:23:11.808Z,61.71
2023-05-14T12:24:12.804Z,60.52
2023-05-14T12:25:11.805Z,55.38
2023-05-14T12:26:12.796Z,49.96
2023-05-14T12:27:11.818Z,40.89
2023-05-14T12:28:11.797Z,38.37
2023-05-14T12:29:12.764Z,40.66
2023-05-14T12:30:27.540Z,44.84
2023-05-14T12:31:12.793Z,44.90
2023-05-14T12:32:12.748Z,45.31
2023-05-14T12:33:12.899Z,47.55
2023-05-14T12:34:12.741Z,49.88
2023-05-14T12:35:12.745Z,55.33
2023-05-14T12:36:21.664Z,47.22
2023-05-14T12:37:12.711Z,47.23
2023-05-14T12:38:12.706Z,47.35